Time;durP1;ratioP1;P1;durP2;ratioP2;P2;SDS_P1;SDS_P2;PMS_P1;PMS_P2;Temp;Humidity;BMP_temperature;BMP_pressure;BME280_temperature;BME280_humidity;BME280_pressure;Samples;Min_cycle;Max_cycle;Signal;HPM_P1;HPM_P2
2023/06/16 00:00:38;;;;;;;1.33;1.15;;;;;;;27.91;39.62;102041.50;4997586;28;20108;-32
2023/06/16 00:03:06;;;;;;;1.27;1.17;;;;;;;27.90;39.97;102037.94;5002521;28;20077;-32
2023/06/16 00:05:34;;;;;;;1.90;1.30;;;;;;;27.89;39.54;102038.97;4996847;28;20061;-31
2023/06/16 00:08:03;;;;;;;1.77;1.38;;;;;;;27.89;39.56;102036.22;5003369;28;20042;-32
2023/06/16 00:10:30;;;;;;;2.03;1.00;;;;;;;27.89;39.97;102036.22;4999446;28;20058;-33
2023/06/16 00:12:57;;;;;;;1.60;1.30;;;;;;;27.88;39.99;102037.28;5002247;28;20054;-32
2023/06/16 00:15:24;;;;;;;2.00;1.50;;;;;;;27.87;39.54;102032.88;4999212;28;20061;-32
2023/06/16 00:17:51;;;;;;;1.77;1.40;;;;;;;27.87;39.54;102035.59;5000940;28;20054;-32
2023/06/16 00:20:21;;;;;;;1.88;1.40;;;;;;;27.86;39.53;102033.91;4999172;28;20101;-32
2023/06/16 00:22:48;;;;;;;1.63;1.48;;;;;;;27.86;39.97;102033.03;5002211;28;20442;-32
2023/06/16 00:25:17;;;;;;;1.38;1.27;;;;;;;27.84;40.02;102038.69;5003143;28;20398;-32
2023/06/16 00:27:44;;;;;;;1.30;1.20;;;;;;;27.84;39.92;102032.41;5001715;28;20125;-32
2023/06/16 00:30:12;;;;;;;1.35;1.25;;;;;;;27.82;40.05;102032.59;4998432;28;20056;-32
2023/06/16 00:32:38;;;;;;;1.67;1.35;;;;;;;27.82;39.60;102027.16;5000974;28;20049;-33
2023/06/16 00:35:06;;;;;;;1.60;1.15;;;;;;;27.81;39.82;102033.63;5001050;28;20343;-31
2023/06/16 00:37:32;;;;;;;2.17;1.70;;;;;;;27.80;39.65;102031.94;5000722;28;20058;-31
2023/06/16 00:39:59;;;;;;;2.03;1.38;;;;;;;27.78;40.04;102028.56;5002309;28;20054;-32
2023/06/16 00:42:26;;;;;;;2.03;1.42;;;;;;;27.78;39.49;102028.56;5001759;28;20085;-31
2023/06/16 00:44:52;;;;;;;1.90;1.50;;;;;;;27.77;39.52;102032.31;5000532;28;20068;-32
2023/06/16 00:47:20;;;;;;;1.55;1.20;;;;;;;27.76;40.09;102025.19;5000164;28;20047;-32
2023/06/16 00:49:47;;;;;;;1.60;1.20;;;;;;;27.75;39.87;102024.34;5000174;28;20076;-32
2023/06/16 00:52:15;;;;;;;1.92;1.60;;;;;;;27.74;40.08;102024.50;4999551;28;20062;-33
2023/06/16 00:54:43;;;;;;;1.83;1.40;;;;;;;27.73;39.65;102029.13;5003369;28;20065;-31
2023/06/16 00:57:09;;;;;;;2.33;1.80;;;;;;;27.72;39.30;102029.28;4999121;28;20054;-32
2023/06/16 00:59:36;;;;;;;2.05;1.35;;;;;;;27.71;39.61;102023.00;4998975;28;20054;-32
2023/06/16 01:02:03;;;;;;;1.85;1.38;;;;;;;27.71;39.45;102019.44;4998544;28;20054;-32
2023/06/16 01:04:31;;;;;;;1.85;1.35;;;;;;;27.69;39.84;102018.75;5000533;28;20766;-32
2023/06/16 01:07:15;;;;;;;2.38;1.55;;;;;;;27.67;39.76;102015.41;4996594;28;20046;-32
2023/06/16 01:09:57;;;;;;;2.50;1.55;;;;;;;27.66;39.62;102016.41;4999785;28;20053;-32
2023/06/16 01:12:32;;;;;;;2.33;1.50;;;;;;;27.65;39.92;102018.28;4997735;28;20147;-32
2023/06/16 01:15:21;;;;;;;1.50;1.23;;;;;;;27.65;39.63;102020.16;4994950;28;20524;-33
2023/06/16 01:17:50;;;;;;;1.70;1.35;;;;;;;27.65;39.81;102017.44;4998984;28;20149;-31
2023/06/16 01:20:53;;;;;;;2.05;1.23;;;;;;;27.61;39.90;102016.97;5022529;28;20101;-32
2023/06/16 01:23:41;;;;;;;1.67;1.40;;;;;;;27.62;39.95;102018.69;5001647;28;20046;-32
2023/06/16 01:26:10;;;;;;;2.47;1.42;;;;;;;27.62;40.20;102017.81;5005895;28;20050;-32
2023/06/16 01:28:41;;;;;;;1.58;1.35;;;;;;;27.61;39.73;102010.69;4998890;28;20085;-32
2023/06/16 01:31:12;;;;;;;1.55;1.40;;;;;;;27.59;39.98;102019.06;5006538;28;20081;-31
2023/06/16 01:33:40;;;;;;;1.85;1.40;;;;;;;27.58;40.26;102013.78;5004472;28;20311;-33
2023/06/16 01:36:08;;;;;;;2.42;1.30;;;;;;;27.59;40.19;102020.94;5008001;28;20056;-32
2023/06/16 01:38:35;;;;;;;2.80;1.20;;;;;;;27.55;40.24;102013.16;4999527;28;20092;-31
2023/06/16 01:41:03;;;;;;;1.65;1.40;;;;;;;27.55;39.92;102009.56;4996525;28;20054;-31
2023/06/16 01:43:32;;;;;;;2.45;1.55;;;;;;;27.55;40.03;102015.03;4999390;28;20101;-32
2023/06/16 01:45:59;;;;;;;1.88;1.63;;;;;;;27.53;40.31;102020.63;4995329;28;20100;-32
2023/06/16 01:48:26;;;;;;;2.40;1.40;;;;;;;27.52;39.92;102012.66;4998602;28;20046;-31
2023/06/16 01:50:53;;;;;;;3.30;1.85;;;;;;;27.51;39.85;102011.84;4993109;28;20054;-33
2023/06/16 01:53:20;;;;;;;2.20;1.65;;;;;;;27.51;40.14;102011.00;4996620;28;20357;-32
2023/06/16 01:55:51;;;;;;;1.60;1.40;;;;;;;27.49;40.27;102013.03;4996744;28;20108;-31
2023/06/16 01:58:20;;;;;;;3.13;1.58;;;;;;;27.48;40.21;102012.19;5000194;28;20081;-31
2023/06/16 02:00:54;;;;;;;1.30;1.20;;;;;;;27.47;40.04;102015.97;4999448;28;20383;-32
2023/06/16 02:03:40;;;;;;;2.20;1.50;;;;;;;27.45;39.79;102014.44;5000416;28;20046;-32
2023/06/16 02:06:16;;;;;;;2.38;1.25;;;;;;;27.44;40.12;102012.78;4996044;28;20374;-32
2023/06/16 02:08:45;;;;;;;2.17;1.55;;;;;;;27.44;39.64;102023.66;4999960;28;20053;-31
2023/06/16 02:11:12;;;;;;;4.03;1.70;;;;;;;27.43;40.25;102019.25;5001290;28;20133;-32
2023/06/16 02:13:39;;;;;;;1.73;1.35;;;;;;;27.41;40.13;102021.31;5002504;28;20042;-31
2023/06/16 02:16:06;;;;;;;2.17;1.63;;;;;;;27.40;39.74;102025.06;5001406;28;20069;-32
2023/06/16 02:18:32;;;;;;;1.75;1.45;;;;;;;27.39;40.04;102017.94;5001816;28;20131;-32
2023/06/16 02:20:59;;;;;;;2.70;1.50;;;;;;;27.37;39.84;102017.28;5000814;28;20428;-31
2023/06/16 02:23:26;;;;;;;1.70;1.52;;;;;;;27.36;39.96;102015.59;5001843;28;20135;-32
2023/06/16 02:25:52;;;;;;;2.15;1.65;;;;;;;27.36;39.73;102012.88;5000755;28;20245;-32
2023/06/16 02:28:19;;;;;;;1.73;1.30;;;;;;;27.34;40.09;102015.78;5000514;28;20492;-32
2023/06/16 02:30:45;;;;;;;1.67;1.30;;;;;;;27.33;40.41;102016.78;4998152;28;20366;-32
2023/06/16 02:33:15;;;;;;;1.98;1.50;;;;;;;27.31;40.34;102017.00;4999294;28;20058;-32
2023/06/16 02:35:41;;;;;;;1.63;1.50;;;;;;;27.31;40.21;102017.00;4999923;28;20128;-32
2023/06/16 02:38:08;;;;;;;1.38;1.20;;;;;;;27.31;40.22;102013.44;5003443;28;20054;-31
2023/06/16 02:40:35;;;;;;;2.40;1.60;;;;;;;27.29;40.30;102012.75;4999365;28;20407;-33
2023/06/16 02:43:02;;;;;;;1.58;1.30;;;;;;;27.29;39.92;102015.47;4998008;28;20057;-32
2023/06/16 02:45:28;;;;;;;1.80;1.50;;;;;;;27.28;40.05;102016.53;4994807;28;20323;-32
2023/06/16 02:47:55;;;;;;;3.58;1.95;;;;;;;27.28;40.00;102021.97;4998298;28;20054;-32
2023/06/16 02:50:22;;;;;;;1.92;1.35;;;;;;;27.26;39.91;102027.59;5003326;28;20415;-32
2023/06/16 02:52:49;;;;;;;1.30;1.17;;;;;;;27.26;40.27;102014.00;5007080;28;20089;-32
2023/06/16 02:55:16;;;;;;;1.58;1.30;;;;;;;27.26;39.89;102014.00;5006578;28;20057;-31
2023/06/16 02:57:43;;;;;;;1.63;1.15;;;;;;;27.25;39.77;102009.56;5007622;28;20046;-32
2023/06/16 03:00:10;;;;;;;1.67;1.52;;;;;;;27.25;40.13;102011.44;5005040;28;20093;-32
2023/06/16 03:02:37;;;;;;;2.08;1.40;;;;;;;27.25;40.08;102014.16;5006464;28;20047;-32
2023/06/16 03:05:04;;;;;;;1.63;1.42;;;;;;;27.25;40.47;102008.72;5008265;28;20050;-31
2023/06/16 03:07:34;;;;;;;2.08;1.50;;;;;;;27.23;40.31;102008.06;5008840;28;20393;-32
2023/06/16 03:10:01;;;;;;;1.98;1.40;;;;;;;27.23;40.17;102013.53;5007463;28;20058;-32
2023/06/16 03:12:28;;;;;;;1.55;1.30;;;;;;;27.22;40.30;102012.69;5008437;28;20058;-32
2023/06/16 03:14:55;;;;;;;2.35;1.55;;;;;;;27.21;40.22;102021.84;5005636;28;20419;-31
2023/06/16 03:17:21;;;;;;;2.92;1.60;;;;;;;27.21;40.10;102015.56;5006912;28;20638;-32
2023/06/16 03:19:48;;;;;;;1.50;1.20;;;;;;;27.20;40.47;102014.72;5006691;28;20053;-32
2023/06/16 03:22:15;;;;;;;2.50;1.52;;;;;;;27.20;40.11;102011.16;5004773;28;20076;-31
2023/06/16 03:24:43;;;;;;;1.55;1.30;;;;;;;27.18;40.00;102021.41;5004740;28;20117;-32
2023/06/16 03:27:11;;;;;;;1.73;1.42;;;;;;;27.18;40.08;102014.09;5004033;28;20050;-31
2023/06/16 03:29:38;;;;;;;1.50;1.38;;;;;;;27.18;40.08;102024.97;5004042;28;20054;-31
2023/06/16 03:32:05;;;;;;;2.50;1.80;;;;;;;27.17;40.17;102025.13;5003243;28;20093;-32
2023/06/16 03:34:32;;;;;;;2.53;1.58;;;;;;;27.15;40.09;102016.34;5004627;28;20085;-31
2023/06/16 03:36:58;;;;;;;2.35;1.42;;;;;;;27.14;40.28;102017.38;4993062;28;20150;-32
2023/06/16 03:39:25;;;;;;;2.55;1.60;;;;;;;27.14;40.00;102017.38;4997613;28;20430;-31
2023/06/16 03:41:52;;;;;;;2.35;1.75;;;;;;;27.14;40.43;102020.09;4994533;28;20085;-32
2023/06/16 03:44:19;;;;;;;2.28;1.33;;;;;;;27.12;40.34;102020.25;4995375;28;20078;-31
2023/06/16 03:46:45;;;;;;;1.80;1.40;;;;;;;27.13;40.37;102029.25;5000459;28;20104;-31
2023/06/16 03:49:12;;;;;;;1.65;1.45;;;;;;;27.11;40.18;102021.31;4996972;28;20089;-31
2023/06/16 03:51:39;;;;;;;2.67;1.35;;;;;;;27.11;40.09;102025.91;4995412;28;20458;-34
2023/06/16 03:54:06;;;;;;;3.10;1.90;;;;;;;27.09;40.08;102031.47;4999244;28;20049;-32
2023/06/16 03:56:33;;;;;;;1.55;1.40;;;;;;;27.08;40.23;102022.47;4996605;28;20426;-32
2023/06/16 03:58:59;;;;;;;1.70;1.60;;;;;;;27.07;40.14;102015.34;4997231;28;20505;-32
2023/06/16 04:01:26;;;;;;;1.83;1.52;;;;;;;27.08;40.39;102021.63;5001849;28;20094;-32
2023/06/16 04:03:53;;;;;;;1.60;1.48;;;;;;;27.07;40.04;102028.94;4996517;28;20050;-31
2023/06/16 04:06:19;;;;;;;1.45;1.33;;;;;;;27.06;40.51;102019.09;4996338;28;20109;-32
2023/06/16 04:08:46;;;;;;;2.20;1.67;;;;;;;27.07;40.33;102028.13;5003516;28;20334;-32
2023/06/16 04:11:16;;;;;;;1.77;1.55;;;;;;;27.05;40.14;102030.16;4994382;28;20379;-32
2023/06/16 04:13:43;;;;;;;1.55;1.45;;;;;;;27.04;40.13;102026.59;4993445;28;20053;-32
2023/06/16 04:16:09;;;;;;;3.10;1.40;;;;;;;27.04;40.51;102029.31;5001301;28;20093;-31
2023/06/16 04:18:36;;;;;;;4.30;1.50;;;;;;;27.03;40.11;102024.06;5000761;28;20057;-32
2023/06/16 04:21:02;;;;;;;2.08;1.42;;;;;;;27.03;40.31;102024.06;5002745;28;20050;-32
2023/06/16 04:23:29;;;;;;;2.13;1.92;;;;;;;27.02;40.19;102028.66;5000350;28;20421;-31
2023/06/16 04:25:56;;;;;;;2.08;1.50;;;;;;;27.02;39.79;102033.28;5003062;28;20054;-32
2023/06/16 04:28:24;;;;;;;2.58;1.50;;;;;;;27.02;40.33;102031.41;4999656;28;20042;-31
2023/06/16 04:30:51;;;;;;;1.58;1.30;;;;;;;27.02;40.22;102031.41;5001611;28;20158;-32
2023/06/16 04:33:22;;;;;;;3.83;2.00;;;;;;;27.01;40.08;102026.97;5001391;28;20096;-31
2023/06/16 04:35:50;;;;;;;2.85;1.50;;;;;;;27.01;40.04;102026.97;5001308;28;20269;-32
2023/06/16 04:38:18;;;;;;;3.50;1.60;;;;;;;27.02;40.07;102025.09;4999244;28;20060;-32
2023/06/16 04:40:45;;;;;;;2.60;1.48;;;;;;;27.01;40.26;102029.69;5001316;28;20054;-31
2023/06/16 04:43:12;;;;;;;2.05;1.40;;;;;;;27.02;39.98;102023.22;5001101;28;20085;-32
2023/06/16 04:45:38;;;;;;;2.55;1.65;;;;;;;27.02;40.06;102030.56;5004447;28;20153;-32
2023/06/16 04:48:05;;;;;;;1.70;1.50;;;;;;;27.02;40.21;102028.66;5004266;28;20058;-32
2023/06/16 04:50:32;;;;;;;1.77;1.48;;;;;;;27.04;40.51;102034.75;4998541;28;20346;-32
2023/06/16 04:52:58;;;;;;;2.10;1.38;;;;;;;27.05;40.13;102030.16;5002891;28;20089;-32
2023/06/16 04:55:26;;;;;;;1.85;1.58;;;;;;;27.06;40.01;102034.59;5002784;28;20053;-31
2023/06/16 04:57:53;;;;;;;2.55;1.50;;;;;;;27.06;40.33;102035.44;4991577;28;20058;-32
2023/06/16 05:00:20;;;;;;;1.90;1.70;;;;;;;27.08;40.12;102036.06;4999734;28;20493;-32
2023/06/16 05:02:48;;;;;;;2.17;1.33;;;;;;;27.11;40.17;102042.22;5000517;28;20457;-31
2023/06/16 05:05:15;;;;;;;1.95;1.70;;;;;;;27.12;40.27;102041.19;5000556;28;20429;-31
2023/06/16 05:07:41;;;;;;;1.42;1.30;;;;;;;27.13;40.01;102051.88;4999854;28;20158;-33
2023/06/16 05:10:08;;;;;;;1.98;1.55;;;;;;;27.14;40.29;102050.88;5001866;28;20097;-32
2023/06/16 05:12:35;;;;;;;1.80;1.23;;;;;;;27.15;39.71;102049.84;4998344;28;20136;-32
2023/06/16 05:15:02;;;;;;;4.20;1.55;;;;;;;27.17;40.02;102052.34;5001177;28;20548;-32
2023/06/16 05:17:30;;;;;;;2.65;2.08;;;;;;;27.19;39.96;102050.31;5000162;28;20164;-31
2023/06/16 05:19:56;;;;;;;1.85;1.52;;;;;;;27.20;39.96;102052.00;4998298;28;20046;-32
2023/06/16 05:22:23;;;;;;;3.53;1.58;;;;;;;27.21;40.28;102049.06;4995658;28;20647;-32
2023/06/16 05:24:54;;;;;;;1.65;1.55;;;;;;;27.24;39.98;102047.88;5002650;28;20053;-32
2023/06/16 05:27:25;;;;;;;2.30;1.52;;;;;;;27.25;39.92;102049.56;4991172;28;20075;-32
2023/06/16 05:29:53;;;;;;;1.40;1.20;;;;;;;27.27;39.64;102051.06;4996584;28;20085;-32
2023/06/16 05:32:24;;;;;;;2.70;1.48;;;;;;;27.29;39.99;102050.88;4993358;28;20061;-32
2023/06/16 05:34:51;;;;;;;1.70;1.50;;;;;;;27.31;39.85;102049.66;4995604;28;20106;-32
2023/06/16 05:37:20;;;;;;;1.33;1.23;;;;;;;27.33;40.01;102054.06;4991668;28;20092;-32
2023/06/16 05:39:47;;;;;;;2.53;1.73;;;;;;;27.35;39.44;102054.75;5002616;28;20056;-31
2023/06/16 05:42:15;;;;;;;1.20;1.05;;;;;;;27.37;39.64;102060.84;4998180;28;20116;-31
2023/06/16 05:44:45;;;;;;;1.67;1.30;;;;;;;27.39;39.49;102059.63;4994599;28;20140;-31
2023/06/16 05:47:13;;;;;;;1.85;1.50;;;;;;;27.40;40.08;102060.47;4998747;28;20415;-31
2023/06/16 05:49:39;;;;;;;2.58;1.95;;;;;;;27.44;39.44;102056.34;4995054;28;20137;-31
2023/06/16 05:52:06;;;;;;;2.15;1.20;;;;;;;27.44;39.32;102056.34;4993998;28;20104;-31
2023/06/16 05:54:33;;;;;;;1.67;1.40;;;;;;;27.46;39.47;102059.75;5002172;28;20057;-31
2023/06/16 05:57:00;;;;;;;2.90;1.67;;;;;;;27.48;39.24;102060.38;4995103;28;20078;-31
2023/06/16 05:59:27;;;;;;;2.05;1.70;;;;;;;27.49;39.42;102062.06;4995512;28;20133;-31
2023/06/16 06:01:55;;;;;;;1.65;1.30;;;;;;;27.50;39.53;102059.16;4998291;28;20054;-31
2023/06/16 06:04:30;;;;;;;1.95;1.35;;;;;;;27.50;39.30;102059.16;4990694;28;20101;-31
2023/06/16 06:06:58;;;;;;;2.28;1.20;;;;;;;27.53;39.24;102068.81;4995288;28;20050;-32
2023/06/16 06:09:24;;;;;;;1.48;1.25;;;;;;;27.53;39.03;102066.94;4998140;28;20086;-32
2023/06/16 06:11:51;;;;;;;2.80;1.90;;;;;;;27.54;39.26;102062.38;4998179;28;20058;-32
2023/06/16 06:14:18;;;;;;;2.33;1.52;;;;;;;27.54;39.27;102068.66;4996908;28;20324;-31
2023/06/16 06:16:45;;;;;;;1.98;1.40;;;;;;;27.54;39.19;102062.38;4999959;28;20058;-32
2023/06/16 06:19:11;;;;;;;1.65;1.48;;;;;;;27.55;39.13;102072.22;4997576;28;20056;-31
2023/06/16 06:21:39;;;;;;;1.60;1.38;;;;;;;27.55;39.46;102072.22;4998265;28;20138;-32
2023/06/16 06:24:06;;;;;;;1.40;1.30;;;;;;;27.55;39.13;102077.66;4994435;28;20058;-32
2023/06/16 06:26:33;;;;;;;1.85;1.38;;;;;;;27.54;39.33;102071.38;5001460;28;20054;-32
2023/06/16 06:29:00;;;;;;;1.60;1.50;;;;;;;27.55;39.02;102070.34;4997247;28;20497;-32
2023/06/16 06:31:26;;;;;;;1.40;1.10;;;;;;;27.55;38.93;102073.06;5005725;28;20385;-32
2023/06/16 06:33:53;;;;;;;3.13;1.50;;;;;;;27.57;39.58;102075.59;4997922;28;20057;-32
2023/06/16 06:36:27;;;;;;;1.85;1.38;;;;;;;27.56;39.32;102080.19;4998266;28;20390;-32
2023/06/16 06:38:56;;;;;;;2.08;1.38;;;;;;;27.56;38.76;102080.19;4996422;28;20143;-31
2023/06/16 06:41:24;;;;;;;2.65;1.60;;;;;;;27.57;38.92;102075.59;4998684;28;20427;-31
2023/06/16 06:43:53;;;;;;;1.95;1.50;;;;;;;27.56;39.11;102069.28;4998929;28;20479;-32
2023/06/16 06:46:20;;;;;;;1.13;1.00;;;;;;;27.56;38.73;102072.03;4994885;28;20373;-32
2023/06/16 06:48:47;;;;;;;4.55;1.27;;;;;;;27.56;38.71;102080.19;4995452;28;20109;-32
2023/06/16 06:51:13;;;;;;;1.42;1.30;;;;;;;27.56;39.16;102077.47;4998235;28;20462;-32
2023/06/16 06:53:40;;;;;;;2.08;1.70;;;;;;;27.57;39.44;102081.03;4996476;28;20042;-33
2023/06/16 06:56:07;;;;;;;2.05;1.35;;;;;;;27.55;39.47;102081.22;4996228;28;20108;-32
2023/06/16 06:58:34;;;;;;;1.42;1.33;;;;;;;27.55;38.97;102075.78;4995594;28;20054;-32
2023/06/16 07:01:01;;;;;;;1.50;1.40;;;;;;;27.56;38.80;102080.19;5002361;28;20047;-31
2023/06/16 07:03:27;;;;;;;2.10;1.38;;;;;;;27.55;39.13;102075.78;4996471;28;20077;-32
2023/06/16 07:05:54;;;;;;;2.38;1.40;;;;;;;27.56;39.11;102079.34;5001053;28;20054;-31
2023/06/16 07:08:21;;;;;;;1.52;1.40;;;;;;;27.55;39.32;102081.22;5006111;28;20329;-32
2023/06/16 07:10:47;;;;;;;1.67;1.40;;;;;;;27.56;38.99;102082.06;5003595;28;20558;-31
2023/06/16 07:13:14;;;;;;;1.70;1.60;;;;;;;27.56;38.89;102080.19;5005854;28;20049;-32
2023/06/16 07:15:41;;;;;;;1.60;1.25;;;;;;;27.56;39.18;102082.91;5041408;28;20073;-32
2023/06/16 07:18:07;;;;;;;1.48;1.30;;;;;;;27.58;38.92;102077.31;5004494;28;20077;-32
2023/06/16 07:20:34;;;;;;;1.70;1.60;;;;;;;27.56;38.82;102074.75;5009879;28;20133;-31
2023/06/16 07:23:01;;;;;;;1.70;1.45;;;;;;;27.58;39.03;102077.31;5008856;28;20072;-33
2023/06/16 07:25:28;;;;;;;2.15;1.40;;;;;;;27.59;39.25;102072.69;5009611;28;20469;-32
2023/06/16 07:27:55;;;;;;;1.70;1.25;;;;;;;27.60;39.26;102071.66;5008372;28;20109;-31
2023/06/16 07:30:22;;;;;;;2.83;1.30;;;;;;;27.60;38.59;102075.22;5005090;28;20065;-32
2023/06/16 07:32:49;;;;;;;2.25;1.38;;;;;;;27.60;39.27;102069.78;5007101;28;20413;-32
2023/06/16 07:35:16;;;;;;;1.65;1.30;;;;;;;27.60;39.21;102075.22;5005707;28;20141;-32
2023/06/16 07:37:43;;;;;;;2.30;1.60;;;;;;;27.60;38.80;102075.22;4993420;28;20054;-34
2023/06/16 07:40:13;;;;;;;2.85;1.40;;;;;;;27.61;38.53;102082.34;4995504;28;20371;-33
2023/06/16 07:42:44;;;;;;;1.50;1.20;;;;;;;27.61;39.17;102074.19;4999068;28;20050;-34
2023/06/16 07:45:11;;;;;;;2.25;1.38;;;;;;;27.62;39.11;102081.34;4996723;28;20400;-33
2023/06/16 07:47:40;;;;;;;1.52;1.25;;;;;;;27.63;38.89;102079.47;4991754;28;20050;-34
2023/06/16 07:50:08;;;;;;;1.95;1.40;;;;;;;27.63;38.83;102080.31;4996455;28;20070;-34
2023/06/16 07:52:35;;;;;;;2.15;1.27;;;;;;;27.63;39.29;102085.75;4998632;28;20054;-34
2023/06/16 07:55:02;;;;;;;1.77;1.45;;;;;;;27.63;39.23;102080.31;5001428;28;20058;-33
2023/06/16 07:57:28;;;;;;;2.10;1.40;;;;;;;27.64;38.83;102081.13;4999723;28;20051;-32
2023/06/16 07:59:57;;;;;;;1.30;1.15;;;;;;;27.64;38.56;102081.97;5001068;28;20368;-32
2023/06/16 08:02:23;;;;;;;1.40;1.20;;;;;;;27.65;38.99;102077.38;5000932;28;20041;-32
2023/06/16 08:04:50;;;;;;;2.33;1.30;;;;;;;27.66;39.04;102079.06;4997678;28;20058;-32
2023/06/16 08:07:17;;;;;;;2.10;1.50;;;;;;;27.66;39.13;102074.47;5003938;28;20056;-32
2023/06/16 08:09:44;;;;;;;2.55;1.33;;;;;;;27.66;38.90;102073.63;4997754;28;20081;-32
2023/06/16 08:12:11;;;;;;;1.50;1.38;;;;;;;27.67;38.67;102080.78;4999685;28;20136;-33
2023/06/16 08:14:37;;;;;;;3.42;1.55;;;;;;;27.67;38.99;102075.31;4996371;28;20058;-33
2023/06/16 08:17:04;;;;;;;1.85;1.40;;;;;;;27.67;39.07;102070.72;4997536;28;20104;-32
2023/06/16 08:19:31;;;;;;;1.30;1.20;;;;;;;27.68;38.72;102079.72;4995282;28;20438;-32
2023/06/16 08:21:59;;;;;;;1.50;1.40;;;;;;;27.68;38.84;102071.56;4995718;28;20108;-33
2023/06/16 08:24:25;;;;;;;1.50;1.20;;;;;;;27.68;39.09;102072.41;4995992;28;20294;-32
2023/06/16 08:26:52;;;;;;;1.45;1.15;;;;;;;27.70;38.91;102066.75;4996671;28;20054;-32
2023/06/16 08:29:20;;;;;;;1.38;1.20;;;;;;;27.70;38.75;102072.19;4996316;28;20133;-33
2023/06/16 08:31:46;;;;;;;1.40;1.30;;;;;;;27.70;38.83;102074.91;4999673;28;20421;-32
2023/06/16 08:34:13;;;;;;;1.85;1.50;;;;;;;27.71;39.01;102077.47;5001964;28;20061;-32
2023/06/16 08:36:40;;;;;;;1.80;1.48;;;;;;;27.71;39.32;102072.03;5003498;28;20050;-33
2023/06/16 08:39:07;;;;;;;1.63;1.27;;;;;;;27.71;38.46;102066.59;5003140;28;20050;-32
2023/06/16 08:41:37;;;;;;;1.90;1.30;;;;;;;27.72;38.74;102071.00;5003962;28;20345;-33
2023/06/16 08:44:07;;;;;;;1.40;1.20;;;;;;;27.74;38.74;102076.28;4991905;28;20058;-33
2023/06/16 08:46:35;;;;;;;1.38;1.27;;;;;;;27.74;38.66;102063.53;4997033;28;20049;-36
2023/06/16 08:49:05;;;;;;;1.73;1.40;;;;;;;27.74;38.98;102070.81;5003130;28;20049;-33
2023/06/16 08:51:34;;;;;;;1.50;1.40;;;;;;;27.77;38.92;102073.19;5004602;28;20496;-34
2023/06/16 08:54:05;;;;;;;1.50;1.33;;;;;;;27.76;38.61;102063.31;5004084;28;20054;-32
2023/06/16 08:56:33;;;;;;;1.88;1.45;;;;;;;27.76;38.47;102050.53;5003970;28;20342;-33
2023/06/16 08:59:04;;;;;;;1.50;1.13;;;;;;;27.77;39.01;102068.56;5004746;28;20042;-32
2023/06/16 09:01:33;;;;;;;1.67;1.40;;;;;;;27.78;38.82;102061.25;5002971;28;20133;-32
2023/06/16 09:04:00;;;;;;;3.08;1.38;;;;;;;27.78;38.99;102051.22;5002260;28;20049;-32
2023/06/16 09:06:27;;;;;;;2.42;1.65;;;;;;;27.80;38.84;102062.75;5004276;28;20046;-33
2023/06/16 09:08:54;;;;;;;1.42;1.25;;;;;;;27.80;38.71;102060.03;5000649;28;20093;-33
2023/06/16 09:11:24;;;;;;;1.73;1.50;;;;;;;27.83;39.13;102063.41;5001144;28;20050;-31
2023/06/16 09:13:52;;;;;;;1.27;1.17;;;;;;;27.84;39.29;102054.19;5000965;28;20100;-32
2023/06/16 09:16:21;;;;;;;1.35;1.20;;;;;;;27.86;39.32;102063.88;5000584;28;20061;-31
2023/06/16 09:18:49;;;;;;;1.63;1.50;;;;;;;27.88;38.76;102067.25;4999437;28;20485;-31
2023/06/16 09:21:20;;;;;;;3.13;1.90;;;;;;;27.89;38.53;102065.38;5001874;28;20125;-31
2023/06/16 09:23:56;;;;;;;;;;;;;;;27.90;38.75;102065.19;4997572;28;20049;-31
2023/06/16 09:26:30;;;;;;;1.88;1.65;;;;;;;27.96;38.63;102061.69;5003412;28;20186;-31
2023/06/16 09:28:57;;;;;;;2.30;1.40;;;;;;;27.97;38.58;102063.38;4991518;28;20055;-31
2023/06/16 09:31:27;;;;;;;1.67;1.38;;;;;;;27.99;39.09;102064.03;5001179;28;20053;-32
2023/06/16 09:34:03;;;;;;;1.83;1.35;;;;;;;28.01;39.09;102056.50;4996301;28;20435;-32
2023/06/16 09:36:30;;;;;;;1.75;1.35;;;;;;;28.05;38.55;102052.38;4995784;28;20085;-32
2023/06/16 09:38:57;;;;;;;2.65;1.20;;;;;;;28.11;38.94;102058.09;4991449;28;20104;-32
2023/06/16 09:41:25;;;;;;;1.67;1.40;;;;;;;28.13;38.93;102056.03;4995282;28;20145;-32
2023/06/16 09:43:51;;;;;;;1.10;1.00;;;;;;;28.16;38.79;102061.09;4992615;28;20130;-33
2023/06/16 09:46:18;;;;;;;1.38;1.10;;;;;;;28.18;38.92;102051.69;4993735;28;20104;-32
2023/06/16 09:48:49;;;;;;;2.20;1.33;;;;;;;28.22;38.76;102057.59;4992422;28;20088;-33
2023/06/16 09:51:18;;;;;;;1.40;1.30;;;;;;;28.25;39.07;102054.47;4992608;28;20089;-32
2023/06/16 09:53:48;;;;;;;1.40;1.30;;;;;;;28.28;38.64;102056.84;4993914;28;20067;-32
2023/06/16 09:56:19;;;;;;;2.15;1.30;;;;;;;28.33;39.08;102051.63;4997686;28;20053;-32
2023/06/16 09:58:47;;;;;;;2.05;1.27;;;;;;;28.33;39.03;102054.38;4992087;28;20054;-32
2023/06/16 10:01:16;;;;;;;1.60;1.40;;;;;;;28.36;38.46;102048.56;5003970;28;20057;-32
2023/06/16 10:03:48;;;;;;;1.75;1.40;;;;;;;28.39;39.30;102050.91;5001124;28;20046;-32
2023/06/16 10:06:19;;;;;;;1.67;1.35;;;;;;;28.42;38.29;102038.75;4999955;28;20073;-32
2023/06/16 10:08:48;;;;;;;1.52;1.30;;;;;;;28.45;39.25;102041.09;4999887;28;20139;-32
2023/06/16 10:11:16;;;;;;;1.40;1.25;;;;;;;28.47;38.49;102050.78;4998896;28;20100;-32
2023/06/16 10:13:58;;;;;;;1.67;1.20;;;;;;;28.50;38.81;102044.06;4998653;28;20054;-32
2023/06/16 10:16:29;;;;;;;1.60;1.20;;;;;;;28.52;38.90;102039.28;4999345;28;20050;-32
2023/06/16 10:19:00;;;;;;;1.30;1.20;;;;;;;28.55;38.56;102038.06;4998380;28;20081;-31
2023/06/16 10:21:27;;;;;;;4.25;1.92;;;;;;;28.57;38.58;102039.53;4998757;28;20251;-32
2023/06/16 10:23:54;;;;;;;1.40;1.20;;;;;;;28.59;38.56;102042.94;4999976;28;20062;-33
2023/06/16 10:26:22;;;;;;;3.03;1.30;;;;;;;28.62;38.69;102036.22;5001162;28;20125;-32
2023/06/16 10:28:49;;;;;;;2.35;1.65;;;;;;;28.63;38.66;102037.94;4999503;28;20133;-32
2023/06/16 10:31:18;;;;;;;1.95;1.35;;;;;;;28.66;38.31;102040.25;5001723;28;20050;-33
2023/06/16 10:33:56;;;;;;;1.70;1.38;;;;;;;28.67;39.02;102037.34;4993661;28;20059;-32
2023/06/16 10:36:24;;;;;;;2.22;1.40;;;;;;;28.69;38.41;102026.22;4998017;28;20049;-32
2023/06/16 10:38:57;;;;;;;1.33;1.10;;;;;;;28.70;38.76;102034.19;5001431;28;20073;-33
2023/06/16 10:41:25;;;;;;;2.53;1.25;;;;;;;28.74;38.58;102038.25;5004380;28;20430;-33
2023/06/16 10:43:52;;;;;;;1.55;1.45;;;;;;;28.75;38.50;102033.63;5003572;28;20053;-33
2023/06/16 10:46:20;;;;;;;1.92;1.25;;;;;;;28.76;38.77;102027.97;5002982;28;20053;-32
2023/06/16 10:49:05;;;;;;;1.60;1.13;;;;;;;28.79;38.12;102026.75;5001033;28;20112;-32
2023/06/16 10:51:44;;;;;;;1.15;1.00;;;;;;;28.80;38.43;102022.97;5003306;28;20045;-32
2023/06/16 10:54:13;;;;;;;1.88;1.45;;;;;;;28.83;37.95;102025.31;5001593;28;20133;-32
2023/06/16 10:57:08;;;;;;;1.52;1.15;;;;;;;28.83;38.79;102019.84;5002893;28;20108;-33
2023/06/16 10:59:55;;;;;;;1.40;1.23;;;;;;;28.86;38.03;102021.31;5002510;28;20042;-33
2023/06/16 11:02:34;;;;;;;1.58;1.30;;;;;;;28.87;38.53;102020.28;5002896;28;20045;-33
2023/06/16 11:05:09;;;;;;;1.67;1.35;;;;;;;28.89;38.83;102021.75;4999746;28;20054;-32
2023/06/16 11:07:47;;;;;;;1.30;1.15;;;;;;;28.90;38.91;102023.44;5002789;28;20050;-33
2023/06/16 11:10:20;;;;;;;3.78;1.52;;;;;;;28.93;38.43;102028.50;4999213;28;20179;-33
2023/06/16 11:12:47;;;;;;;3.30;1.50;;;;;;;28.94;38.42;102023.91;5004578;28;20054;-33
2023/06/16 11:15:14;;;;;;;1.70;1.40;;;;;;;28.95;38.91;102015.53;4994820;28;20054;-33
2023/06/16 11:17:45;;;;;;;1.70;1.40;;;;;;;28.97;38.78;102018.09;5001662;28;20081;-33
2023/06/16 11:20:13;;;;;;;3.63;1.45;;;;;;;28.99;38.21;102016.84;4993873;28;20431;-33
2023/06/16 11:22:40;;;;;;;1.33;1.23;;;;;;;29.00;38.74;102015.81;5002792;28;20049;-33
2023/06/16 11:25:07;;;;;;;1.67;1.48;;;;;;;29.01;37.89;102009.28;5011760;28;20457;-33
2023/06/16 11:27:35;;;;;;;1.40;1.30;;;;;;;29.04;38.11;102013.53;5012143;28;20056;-33
2023/06/16 11:30:05;;;;;;;2.97;1.35;;;;;;;29.04;38.54;102008.06;5011594;28;20096;-33